Time,TemperatureF,DewpointF,PressureIn,WindDirection,WindDirectionDegrees,WindSpeedMPH,WindSpeedGustMPH,Humidity,HourlyPrecipIn,Conditions,Clouds,dailyrainin,SoftwareType,DateUTC
2013-03-25 00:00:00,31.0,25.0,29.91,North,350,6.0,-999.0,80,-99.99,,,-99.99,,2013-03-25 00:00:00,
2013-03-25 00:22:00,31.0,25.0,29.91,North,350,6.0,-999.0,80,-99.99,,,-99.99,,2013-03-25 00:22:00,
2013-03-25 00:31:00,31.0,25.0,29.91,North,350,6.0,-999.0,80,-99.99,,,-99.99,,2013-03-25 00:31:00,
2013-03-25 00:42:00,31.0,25.0,29.91,North,350,6.0,-999.0,80,-99.99,,,-99.99,,2013-03-25 00:42:00,
2013-03-25 00:52:00,31.0,25.0,29.91,North,350,6.0,-999.0,80,-99.99,,,-99.99,,2013-03-25 00:52:00,
2013-03-25 03:00:00,32.0,19.0,29.94,ENE,60,16.0,-999.0,58,-99.99,,,-99.99,,2013-03-25 03:00:00,
2013-03-25 03:32:00,32.0,19.0,29.94,ENE,60,16.0,-999.0,58,-99.99,,,-99.99,,2013-03-25 03:32:00,
2013-03-25 03:42:00,32.0,19.0,29.94,ENE,60,16.0,-999.0,58,-99.99,,,-99.99,,2013-03-25 03:42:00,
2013-03-25 03:52:00,32.0,19.0,29.94,ENE,60,16.0,-999.0,58,-99.99,,,-99.99,,2013-03-25 03:52:00,
2013-03-25 06:00:00,31.0,21.0,29.95,NNE,30,8.0,-999.0,67,-99.99,,,-99.99,,2013-03-25 06:00:00,
2013-03-25 06:21:00,31.0,21.0,29.95,NNE,30,8.0,-999.0,67,-99.99,,,-99.99,,2013-03-25 06:21:00,
2013-03-25 06:32:00,31.0,21.0,29.95,NNE,30,8.0,-999.0,67,-99.99,,,-99.99,,2013-03-25 06:32:00,
2013-03-25 06:41:00,31.0,21.0,29.95,NNE,30,8.0,-999.0,67,-99.99,,,-99.99,,2013-03-25 06:41:00,
2013-03-25 06:51:00,31.0,21.0,29.95,NNE,30,8.0,-999.0,67,-99.99,,,-99.99,,2013-03-25 06:51:00,
2013-03-25 09:00:00,29.0,22.0,29.94,NNE,30,6.0,-999.0,74,-99.99,,,-99.99,,2013-03-25 09:00:00,
2013-03-25 09:21:00,29.0,22.0,29.94,NNE,30,6.0,-999.0,74,-99.99,,,-99.99,,2013-03-25 09:21:00,
2013-03-25 09:32:00,29.0,22.0,29.94,NNE,30,6.0,-999.0,74,-99.99,,,-99.99,,2013-03-25 09:32:00,
2013-03-25 09:42:00,29.0,22.0,29.94,NNE,30,6.0,-999.0,74,-99.99,,,-99.99,,2013-03-25 09:42:00,
2013-03-25 09:52:00,29.0,22.0,29.94,NNE,30,6.0,-999.0,74,-99.99,,,-99.99,,2013-03-25 09:52:00,
2013-03-25 12:00:00,28.0,23.0,29.94,NNW,340,9.0,-999.0,79,-99.99,,,-99.99,,2013-03-25 12:00:00,
2013-03-25 12:21:00,28.0,23.0,29.94,NNW,340,9.0,-999.0,79,-99.99,,,-99.99,,2013-03-25 12:21:00,
2013-03-25 12:31:00,28.0,23.0,29.94,NNW,340,9.0,-999.0,79,-99.99,,,-99.99,,2013-03-25 12:31:00,
2013-03-25 12:42:00,28.0,23.0,29.94,NNW,340,9.0,-999.0,79,-99.99,,,-99.99,,2013-03-25 12:42:00,
2013-03-25 12:52:00,28.0,23.0,29.94,NNW,340,9.0,-999.0,79,-99.99,,,-99.99,,2013-03-25 12:52:00,
2013-03-25 15:00:00,29.0,24.0,29.94,North,350,11.0,-999.0,78,-99.99,,,-99.99,,2013-03-25 15:00:00,
2013-03-25 15:21:00,29.0,24.0,29.94,North,350,11.0,-999.0,78,-99.99,,,-99.99,,2013-03-25 15:21:00,
2013-03-25 15:32:00,29.0,24.0,29.94,North,350,11.0,-999.0,78,-99.99,,,-99.99,,2013-03-25 15:32:00,
2013-03-25 15:42:00,29.0,24.0,29.94,North,350,11.0,-999.0,78,-99.99,,,-99.99,,2013-03-25 15:42:00,
2013-03-25 15:52:00,29.0,24.0,29.94,North,350,11.0,-999.0,78,-99.99,,,-99.99,,2013-03-25 15:52:00,
2013-03-25 18:00:00,34.0,27.0,29.95,NW,310,16.0,-999.0,76,-99.99,,,-99.99,,2013-03-25 18:00:00,
2013-03-25 18:22:00,34.0,27.0,29.95,NW,310,16.0,-999.0,76,-99.99,,,-99.99,,2013-03-25 18:22:00,
2013-03-25 18:31:00,34.0,27.0,29.95,NW,310,16.0,-999.0,76,-99.99,,,-99.99,,2013-03-25 18:31:00,
2013-03-25 18:41:00,34.0,27.0,29.95,NW,310,16.0,-999.0,76,-99.99,,,-99.99,,2013-03-25 18:41:00,
2013-03-25 18:51:00,34.0,27.0,29.95,NW,310,16.0,-999.0,76,-99.99,,,-99.99,,2013-03-25 18:51:00,
2013-03-25 21:00:00,34.0,29.0,29.93,NW,320,21.0,-999.0,79,-99.99,,,-99.99,,2013-03-25 21:00:00,
2013-03-25 21:21:00,34.0,29.0,29.93,NW,320,21.0,-999.0,79,-99.99,,,-99.99,,2013-03-25 21:21:00,
2013-03-25 21:32:00,34.0,29.0,29.93,NW,320,21.0,-999.0,79,-99.99,,,-99.99,,2013-03-25 21:32:00,
2013-03-25 21:42:00,34.0,29.0,29.93,NW,320,21.0,-999.0,79,-99.99,,,-99.99,,2013-03-25 21:42:00,
2013-03-25 21:52:00,34.0,29.0,29.93,NW,320,21.0,-999.0,79,-99.99,,,-99.99,,2013-03-25 21:52:00,